Time;durP1;ratioP1;P1;durP2;ratioP2;P2;SDS_P1;SDS_P2;PMS_P1;PMS_P2;Temp;Humidity;BMP_temperature;BMP_pressure;BME280_temperature;BME280_humidity;BME280_pressure;Samples;Min_cycle;Max_cycle;Signal;HPM_P1;HPM_P2
2023/08/11 00:00:22;;;;;;;2.15;1.60;;;;;;;25.07;47.06;95474.25;6313867;27;110248;-69
2023/08/11 00:03:25;;;;;;;1.90;1.60;;;;;;;25.08;46.45;95467.78;6302692;27;109863;-68
2023/08/11 00:06:28;;;;;;;1.92;1.63;;;;;;;25.06;46.36;95467.31;6316088;27;109564;-69
2023/08/11 00:09:31;;;;;;;1.75;1.60;;;;;;;25.06;46.40;95465.44;6291312;27;109069;-69
2023/08/11 00:12:36;;;;;;;1.63;1.40;;;;;;;25.05;46.72;95468.44;6292749;27;109131;-69
2023/08/11 00:15:40;;;;;;;2.90;1.70;;;;;;;25.05;46.38;95460.41;6293225;27;109559;-70
2023/08/11 00:18:43;;;;;;;1.88;1.58;;;;;;;25.05;46.48;95455.81;6288277;27;109212;-69
2023/08/11 00:21:46;;;;;;;2.92;1.60;;;;;;;25.04;46.92;95454.25;6308189;27;110111;-68
2023/08/11 00:24:49;;;;;;;1.80;1.50;;;;;;;25.03;46.67;95452.69;6304696;27;109606;-69
2023/08/11 00:27:54;;;;;;;2.63;1.60;;;;;;;25.03;46.81;95450.00;6284441;27;110592;-68
2023/08/11 00:30:57;;;;;;;2.00;1.80;;;;;;;25.02;46.49;95452.97;6298357;27;109232;-68
2023/08/11 00:34:01;;;;;;;1.80;1.50;;;;;;;25.04;46.71;95453.47;6296477;27;109170;-68
2023/08/11 00:37:04;;;;;;;2.97;1.70;;;;;;;25.02;46.84;95456.44;6287747;27;109012;-68
2023/08/11 00:40:09;;;;;;;1.63;1.50;;;;;;;25.01;47.01;95460.22;6300237;27;109188;-67
2023/08/11 00:43:14;;;;;;;1.85;1.50;;;;;;;24.97;47.24;95461.94;6297815;27;110290;-66
2023/08/11 00:46:23;;;;;;;2.40;1.60;;;;;;;24.96;47.81;95462.25;6303734;27;109353;-65
2023/08/11 00:49:27;;;;;;;3.10;1.63;;;;;;;24.95;47.12;95464.16;6292047;27;111102;-65
2023/08/11 00:52:30;;;;;;;1.80;1.60;;;;;;;24.93;47.13;95463.69;6296388;27;109251;-65
2023/08/11 00:55:33;;;;;;;2.30;1.60;;;;;;;24.93;47.19;95466.34;6305969;27;109128;-65
2023/08/11 00:58:39;;;;;;;2.30;1.70;;;;;;;24.92;47.08;95467.47;6306702;27;109013;-64
2023/08/11 01:01:42;;;;;;;1.83;1.42;;;;;;;24.93;46.91;95470.94;6291161;27;109151;-68
2023/08/11 01:04:46;;;;;;;1.70;1.47;;;;;;;24.92;47.26;95466.69;6308125;27;109109;-63
2023/08/11 01:08:00;;;;;;;2.50;1.55;;;;;;;24.92;47.09;95469.34;6291962;27;109029;-66
2023/08/11 01:11:08;;;;;;;1.80;1.30;;;;;;;24.92;47.16;95469.34;6281556;27;109199;-65
2023/08/11 01:14:19;;;;;;;1.70;1.30;;;;;;;24.93;47.34;95463.69;6289805;27;109212;-64
2023/08/11 01:17:24;;;;;;;2.85;1.48;;;;;;;24.91;46.81;95465.88;6304538;27;109145;-66
2023/08/11 01:20:28;;;;;;;2.20;1.50;;;;;;;24.90;47.17;95464.31;6293315;27;109153;-64
2023/08/11 01:23:32;;;;;;;2.77;1.50;;;;;;;24.91;46.94;95471.25;6283254;27;109367;-64
2023/08/11 01:26:36;;;;;;;2.40;1.50;;;;;;;24.90;47.11;95472.34;6311363;27;109527;-66
2023/08/11 01:29:39;;;;;;;1.67;1.30;;;;;;;24.88;47.37;95468.41;6292521;27;109064;-64
2023/08/11 01:32:42;;;;;;;1.50;1.40;;;;;;;24.85;46.55;95467.13;6311424;27;108948;-67
2023/08/11 01:35:46;;;;;;;2.00;1.50;;;;;;;24.85;47.13;95466.34;6280406;27;110063;-64
2023/08/11 01:38:50;;;;;;;1.80;1.40;;;;;;;24.86;47.28;95465.22;6304849;27;109344;-66
2023/08/11 01:41:53;;;;;;;2.50;1.40;;;;;;;24.85;47.10;95460.97;6302051;27;109079;-65
2023/08/11 01:44:56;;;;;;;1.50;1.40;;;;;;;24.85;47.06;95456.41;6282317;27;109325;-64
2023/08/11 01:48:01;;;;;;;2.03;1.30;;;;;;;24.84;47.08;95456.72;6305137;27;109432;-65
2023/08/11 01:51:05;;;;;;;1.70;1.30;;;;;;;24.82;47.38;95465.06;6296996;27;109233;-66
2023/08/11 01:54:09;;;;;;;1.83;1.40;;;;;;;24.83;47.25;95461.28;6311215;27;109415;-75
2023/08/11 01:57:13;;;;;;;2.28;1.30;;;;;;;24.84;47.22;95462.09;6313874;27;108968;-73
2023/08/11 02:00:16;;;;;;;1.90;1.30;;;;;;;24.84;46.84;95465.53;6299677;27;109669;-75
2023/08/11 02:03:19;;;;;;;2.90;1.53;;;;;;;24.82;47.18;95462.41;6310371;27;109011;-74
2023/08/11 02:06:23;;;;;;;1.27;1.10;;;;;;;24.80;47.26;95461.94;6290949;27;109091;-74
2023/08/11 02:09:27;;;;;;;2.05;1.30;;;;;;;24.80;46.99;95467.28;6280942;27;109215;-73
2023/08/11 02:12:31;;;;;;;2.53;1.40;;;;;;;24.79;47.14;95468.38;6329117;27;108944;-75
2023/08/11 02:15:34;;;;;;;1.40;1.25;;;;;;;24.79;47.10;95465.72;6302549;27;109088;-73
2023/08/11 02:18:37;;;;;;;1.73;1.20;;;;;;;24.81;46.98;95462.72;6290190;27;111941;-75
2023/08/11 02:21:42;;;;;;;1.90;1.27;;;;;;;24.84;47.17;95467.44;6289772;27;109063;-73
2023/08/11 02:24:46;;;;;;;1.50;1.30;;;;;;;24.84;46.80;95468.22;6302717;27;109289;-75
2023/08/11 02:27:49;;;;;;;1.50;1.23;;;;;;;24.84;47.06;95475.47;6315757;27;109055;-74
2023/08/11 02:30:53;;;;;;;2.70;1.30;;;;;;;24.85;46.63;95471.69;6299237;27;109160;-67
2023/08/11 02:33:56;;;;;;;1.50;1.30;;;;;;;24.82;46.65;95473.09;6288882;27;109048;-75
2023/08/11 02:36:59;;;;;;;1.77;1.40;;;;;;;24.82;46.91;95483.03;6312727;27;109070;-75
2023/08/11 02:40:07;;;;;;;2.05;1.20;;;;;;;24.82;46.79;95489.16;6296773;27;109289;-75
2023/08/11 02:43:11;;;;;;;1.42;1.15;;;;;;;24.79;47.12;95489.78;6322500;27;108973;-74
2023/08/11 02:46:14;;;;;;;2.08;1.35;;;;;;;24.79;46.88;95479.88;6302363;27;110064;-77
2023/08/11 02:49:17;;;;;;;2.28;1.38;;;;;;;24.78;46.90;95488.22;6299450;27;109432;-75
2023/08/11 02:52:20;;;;;;;1.50;1.40;;;;;;;24.78;46.93;95488.22;6308575;27;109191;-76
2023/08/11 02:55:24;;;;;;;2.20;1.30;;;;;;;24.80;46.92;95488.69;6302100;27;110191;-73
2023/08/11 02:58:30;;;;;;;2.80;1.45;;;;;;;24.76;47.20;95496.56;6286922;27;109524;-73
2023/08/11 03:01:33;;;;;;;1.63;1.30;;;;;;;24.76;46.75;95485.06;6312514;27;109536;-75
2023/08/11 03:04:37;;;;;;;2.13;1.42;;;;;;;24.77;47.03;95492.00;6298079;27;109481;-63
2023/08/11 03:07:40;;;;;;;2.00;1.40;;;;;;;24.75;46.94;95481.59;6302378;27;108742;-63
2023/08/11 03:10:44;;;;;;;2.00;1.30;;;;;;;24.76;46.69;95488.53;6291411;27;109059;-61
2023/08/11 03:13:59;;;;;;;1.80;1.30;;;;;;;24.75;47.04;95483.50;6312603;27;109007;-62
2023/08/11 03:17:04;;;;;;;1.67;1.20;;;;;;;24.72;47.05;95495.63;6286780;27;109030;-62
2023/08/11 03:20:12;;;;;;;1.60;1.50;;;;;;;24.67;47.19;95481.53;6288458;27;109082;-62
2023/08/11 03:23:15;;;;;;;2.80;1.42;;;;;;;24.66;47.45;95490.69;6292487;27;109067;-61
2023/08/11 03:26:20;;;;;;;1.80;1.40;;;;;;;24.66;47.46;95490.69;6300169;27;109393;-62
2023/08/11 03:29:23;;;;;;;1.50;1.40;;;;;;;24.64;47.39;95495.56;6289539;27;109075;-62
2023/08/11 03:32:26;;;;;;;1.50;1.40;;;;;;;24.65;47.50;95492.56;6306924;27;109402;-62
2023/08/11 03:35:30;;;;;;;2.10;1.40;;;;;;;24.65;47.45;95497.13;6289640;27;110480;-62
2023/08/11 03:38:33;;;;;;;1.50;1.30;;;;;;;24.63;47.27;95502.00;6286287;27;109202;-63
2023/08/11 03:41:37;;;;;;;1.85;1.40;;;;;;;24.63;47.30;95502.78;6302810;27;109233;-61
2023/08/11 03:44:40;;;;;;;1.70;1.40;;;;;;;24.62;47.53;95509.25;6289087;27;109213;-60
2023/08/11 03:47:44;;;;;;;1.90;1.50;;;;;;;24.63;47.20;95502.00;6305628;27;109054;-62
2023/08/11 03:50:47;;;;;;;1.80;1.43;;;;;;;24.61;46.43;95507.66;6279102;27;108950;-61
2023/08/11 03:53:50;;;;;;;1.40;1.30;;;;;;;24.61;47.14;95496.19;6290112;27;110032;-63
2023/08/11 03:56:55;;;;;;;1.70;1.50;;;;;;;24.60;47.58;95497.28;6297226;27;110100;-61
2023/08/11 03:59:58;;;;;;;1.60;1.50;;;;;;;24.60;47.44;95505.31;6294659;27;109525;-62
2023/08/11 04:03:01;;;;;;;1.70;1.40;;;;;;;24.61;47.13;95505.00;6294763;27;109407;-63
2023/08/11 04:06:04;;;;;;;1.70;1.60;;;;;;;24.60;47.48;95500.75;6301904;27;110513;-64
2023/08/11 04:09:08;;;;;;;2.10;1.60;;;;;;;24.62;47.22;95508.47;6322836;27;109226;-64
2023/08/11 04:12:12;;;;;;;4.17;3.40;;;;;;;24.00;44.02;95501.25;6312051;27;109059;-65
2023/08/11 04:15:16;;;;;;;5.03;3.60;;;;;;;23.46;44.90;95502.31;6278260;27;108914;-67
2023/08/11 04:18:19;;;;;;;11.60;4.00;;;;;;;23.26;45.07;95507.00;6329678;27;109315;-65
2023/08/11 04:21:23;;;;;;;7.13;3.90;;;;;;;23.24;45.40;95506.50;6315540;27;109170;-67
2023/08/11 04:24:27;;;;;;;7.30;4.90;;;;;;;23.28;44.59;95512.03;6331426;27;109040;-62
2023/08/11 04:27:31;;;;;;;9.55;6.90;;;;;;;23.30;44.65;95504.53;6303334;27;109094;-66
2023/08/11 04:30:34;;;;;;;7.03;5.90;;;;;;;23.36;44.17;95514.03;6298678;27;109716;-65
2023/08/11 04:33:38;;;;;;;6.95;6.35;;;;;;;23.45;44.17;95516.75;6291383;27;109988;-68
2023/08/11 04:36:41;;;;;;;11.15;9.68;;;;;;;23.33;44.37;95513.81;6297763;27;110056;-67
2023/08/11 04:39:44;;;;;;;10.90;9.63;;;;;;;23.31;44.57;95516.78;6303588;27;109161;-67
2023/08/11 04:42:48;;;;;;;10.70;8.52;;;;;;;23.22;44.50;95524.72;6310163;27;109074;-66
2023/08/11 04:45:52;;;;;;;13.00;11.67;;;;;;;23.12;45.13;95530.25;6293002;27;110279;-66
2023/08/11 04:48:55;;;;;;;7.15;6.50;;;;;;;22.76;46.02;95527.56;6286726;27;109227;-66
2023/08/11 04:51:58;;;;;;;5.80;4.90;;;;;;;22.73;46.21;95535.38;6318563;27;109286;-66
2023/08/11 04:55:03;;;;;;;5.80;4.53;;;;;;;22.44;46.79;95527.63;6287253;27;109010;-67
2023/08/11 04:58:09;;;;;;;5.35;4.72;;;;;;;22.53;46.62;95531.97;6305591;27;109034;-65
2023/08/11 05:01:12;;;;;;;6.78;4.95;;;;;;;22.41;47.15;95537.00;6289727;27;109092;-65
2023/08/11 05:04:16;;;;;;;4.80;4.40;;;;;;;22.50;46.53;95527.22;6288290;27;109264;-64
2023/08/11 05:07:20;;;;;;;6.30;3.85;;;;;;;22.66;46.67;95525.88;6298053;27;109607;-65
2023/08/11 05:10:23;;;;;;;11.48;5.00;;;;;;;22.86;45.95;95537.25;6278679;27;110300;-66
2023/08/11 05:13:28;;;;;;;9.20;5.50;;;;;;;23.05;45.84;95531.78;6287263;27;110531;-67
2023/08/11 05:16:31;;;;;;;11.02;6.40;;;;;;;23.17;45.63;95532.03;6299385;27;109030;-65
2023/08/11 05:19:34;;;;;;;27.25;10.50;;;;;;;23.31;45.67;95540.81;6297314;27;109990;-66
2023/08/11 05:22:38;;;;;;;25.55;10.10;;;;;;;23.27;45.92;95534.47;6282247;27;109576;-67
2023/08/11 05:25:41;;;;;;;13.98;7.85;;;;;;;23.30;46.10;95532.03;6307470;27;109151;-63
2023/08/11 05:28:46;;;;;;;8.93;7.07;;;;;;;22.96;46.87;95535.13;6286116;27;109693;-65
2023/08/11 05:31:49;;;;;;;13.00;7.60;;;;;;;22.79;48.13;95536.84;6298270;27;109264;-64
2023/08/11 05:34:55;;;;;;;8.40;5.90;;;;;;;22.63;49.91;95545.13;6297434;27;110226;-62
2023/08/11 05:37:59;;;;;;;9.30;5.50;;;;;;;23.07;48.63;95545.59;6301452;27;109086;-63
2023/08/11 05:41:03;;;;;;;9.50;5.80;;;;;;;23.46;47.33;95547.72;6320970;27;109171;-64
2023/08/11 05:44:08;;;;;;;8.68;6.22;;;;;;;23.66;46.31;95549.13;6323711;27;110118;-62
2023/08/11 05:47:11;;;;;;;12.95;5.70;;;;;;;23.86;46.07;95545.97;6294468;27;109174;-63
2023/08/11 05:50:14;;;;;;;7.37;5.07;;;;;;;23.96;45.33;95544.94;6299399;27;109333;-62
2023/08/11 05:53:17;;;;;;;7.22;5.45;;;;;;;24.02;45.61;95552.53;6307171;27;109198;-62
2023/08/11 05:56:20;;;;;;;6.97;4.90;;;;;;;24.08;45.52;95547.88;6297295;27;109384;-64
2023/08/11 05:59:25;;;;;;;7.00;5.40;;;;;;;24.16;45.12;95547.13;6297452;27;109402;-63
2023/08/11 06:02:28;;;;;;;6.47;4.20;;;;;;;24.19;45.33;95555.34;6298710;27;109903;-63
2023/08/11 06:05:31;;;;;;;7.40;5.20;;;;;;;24.29;44.99;95559.63;6296200;27;109901;-63
2023/08/11 06:08:34;;;;;;;5.03;4.50;;;;;;;24.38;45.13;95554.34;6293663;27;109130;-65
2023/08/11 06:11:37;;;;;;;7.47;4.20;;;;;;;24.44;44.87;95556.56;6286075;27;109065;-62
2023/08/11 06:14:42;;;;;;;6.70;4.30;;;;;;;24.52;45.06;95556.88;6299726;27;110255;-63
2023/08/11 06:17:50;;;;;;;7.45;4.03;;;;;;;24.57;44.88;95556.78;6293975;27;110158;-64
2023/08/11 06:20:53;;;;;;;5.90;3.90;;;;;;;24.59;45.17;95559.94;6281327;27;110249;-64
2023/08/11 06:23:56;;;;;;;35.17;7.27;;;;;;;24.68;45.14;95563.44;6308189;27;109536;-63
2023/08/11 06:26:59;;;;;;;28.70;7.63;;;;;;;24.77;44.71;95557.03;6303308;27;110377;-64
2023/08/11 06:30:04;;;;;;;10.83;6.10;;;;;;;24.83;44.85;95570.25;6296162;27;111072;-63
2023/08/11 06:33:07;;;;;;;10.47;5.40;;;;;;;24.88;45.12;95568.25;6310899;27;109181;-65
2023/08/11 06:36:10;;;;;;;12.67;4.97;;;;;;;24.85;45.38;95562.72;6296030;27;110217;-66
2023/08/11 06:39:14;;;;;;;9.13;4.70;;;;;;;24.71;45.42;95558.28;6318724;27;109208;-68
2023/08/11 06:42:18;;;;;;;12.43;4.90;;;;;;;24.71;44.95;95562.84;6303760;27;109184;-68
2023/08/11 06:45:22;;;;;;;8.80;4.80;;;;;;;24.67;44.96;95567.97;6314619;27;109069;-70
2023/08/11 06:48:25;;;;;;;13.60;5.40;;;;;;;24.61;44.99;95563.88;6336031;27;109035;-69
2023/08/11 06:51:29;;;;;;;9.02;4.43;;;;;;;24.56;45.16;95569.38;6336666;27;109325;-68
2023/08/11 06:54:33;;;;;;;8.50;4.20;;;;;;;24.57;44.80;95565.59;6334817;27;109074;-66
2023/08/11 06:57:37;;;;;;;6.53;4.40;;;;;;;24.54;44.89;95568.88;6340882;27;110052;-68
2023/08/11 07:00:41;;;;;;;6.37;4.50;;;;;;;24.50;45.08;95574.03;6330697;27;109846;-66
2023/08/11 07:03:45;;;;;;;6.22;3.90;;;;;;;24.52;44.92;95572.94;6328646;27;110143;-68
2023/08/11 07:06:48;;;;;;;5.50;3.70;;;;;;;24.43;45.18;95571.03;6339986;27;111213;-68
2023/08/11 07:09:51;;;;;;;4.70;3.60;;;;;;;24.41;45.15;95581.25;6340027;27;109351;-68
2023/08/11 07:12:55;;;;;;;6.47;3.70;;;;;;;24.49;44.99;95582.38;6324854;27;109293;-67
2023/08/11 07:16:00;;;;;;;4.50;3.97;;;;;;;24.55;44.05;95591.09;6303938;27;110629;-69
2023/08/11 07:19:04;;;;;;;4.68;3.50;;;;;;;24.66;44.87;95590.47;6314235;27;110259;-66
2023/08/11 07:22:07;;;;;;;4.40;3.70;;;;;;;24.63;44.25;95582.28;6322387;27;109429;-67
2023/08/11 07:25:10;;;;;;;4.00;3.60;;;;;;;24.61;44.45;95581.81;6339830;27;109125;-66
2023/08/11 07:28:13;;;;;;;5.75;3.55;;;;;;;24.69;44.30;95576.50;6328782;27;109882;-68
2023/08/11 07:31:18;;;;;;;4.78;3.40;;;;;;;24.84;43.85;95572.63;6325300;27;109150;-67
2023/08/11 07:34:21;;;;;;;4.97;3.50;;;;;;;24.78;43.48;95580.03;6339169;27;109376;-67
2023/08/11 07:37:24;;;;;;;4.33;3.43;;;;;;;24.65;43.75;95580.88;6334154;27;109343;-67
2023/08/11 07:40:27;;;;;;;5.90;3.47;;;;;;;24.73;43.58;95580.16;6335171;27;110146;-67
2023/08/11 07:43:31;;;;;;;9.90;3.87;;;;;;;24.89;44.30;95583.22;6326308;27;110006;-65
2023/08/11 07:46:35;;;;;;;7.15;3.30;;;;;;;25.20;43.87;95591.16;6298619;27;112041;-72
2023/08/11 07:49:38;;;;;;;6.07;3.80;;;;;;;25.20;44.27;95585.00;6302896;27;109291;-71
2023/08/11 07:52:42;;;;;;;8.50;3.93;;;;;;;25.04;43.58;95584.69;6304557;27;110044;-70
2023/08/11 07:55:45;;;;;;;4.30;3.63;;;;;;;24.89;43.93;95577.88;6289491;27;110289;-68
2023/08/11 07:58:48;;;;;;;4.27;3.30;;;;;;;25.03;43.25;95580.41;6312175;27;110539;-71
2023/08/11 08:01:52;;;;;;;5.27;3.30;;;;;;;24.98;43.40;95580.56;6292265;27;109297;-71
2023/08/11 08:04:55;;;;;;;6.03;3.80;;;;;;;24.93;42.84;95586.84;6294111;27;110288;-70
2023/08/11 08:08:14;;;;;;;3.85;3.35;;;;;;;24.96;42.32;95582.75;6312946;27;108989;-72
2023/08/11 08:11:18;;;;;;;6.68;3.72;;;;;;;24.96;42.42;95590.78;6297234;27;109274;-71
2023/08/11 08:14:21;;;;;;;6.20;3.40;;;;;;;24.90;42.03;95587.47;6294809;27;109525;-72
2023/08/11 08:17:27;;;;;;;53.10;37.80;;;;;;;24.95;42.75;95581.19;6301217;27;109206;-70
2023/08/11 08:20:31;;;;;;;71.45;49.80;;;;;;;25.05;42.17;95575.53;6287020;27;108959;-71
2023/08/11 08:23:34;;;;;;;52.97;38.35;;;;;;;25.29;42.33;95572.44;6301102;27;110402;-70
2023/08/11 08:26:37;;;;;;;44.33;33.60;;;;;;;25.42;41.73;95573.44;6311185;27;109219;-71
2023/08/11 08:29:41;;;;;;;46.58;33.25;;;;;;;25.50;41.57;95578.00;6325952;27;108773;-72
2023/08/11 08:32:45;;;;;;;35.57;28.27;;;;;;;25.58;41.88;95571.88;6312566;27;108873;-71
2023/08/11 08:35:48;;;;;;;39.30;29.15;;;;;;;25.68;41.67;95575.00;6299881;27;109334;-71
2023/08/11 08:38:52;;;;;;;36.40;26.42;;;;;;;25.67;41.42;95573.44;6298324;27;109523;-70
2023/08/11 08:41:56;;;;;;;29.50;21.00;;;;;;;25.72;41.96;95577.06;6300872;27;109227;-70
2023/08/11 08:44:59;;;;;;;31.15;22.83;;;;;;;25.73;41.82;95571.41;6286146;27;109064;-70
2023/08/11 08:48:08;;;;;;;31.83;22.40;;;;;;;25.74;41.78;95569.50;6298882;27;109306;-72
2023/08/11 08:51:12;;;;;;;31.20;24.05;;;;;;;25.65;42.15;95566.81;6290233;27;110295;-71
2023/08/11 08:54:15;;;;;;;34.23;27.47;;;;;;;25.60;42.03;95567.75;6294171;27;109085;-71
2023/08/11 08:57:20;;;;;;;35.00;25.88;;;;;;;25.58;42.13;95569.97;6295232;27;109171;-66
2023/08/11 09:00:24;;;;;;;32.08;22.85;;;;;;;25.74;42.48;95566.81;6297946;27;110178;-67
2023/08/11 09:03:29;;;;;;;33.03;21.27;;;;;;;25.85;42.58;95573.41;6298042;27;108899;-66
2023/08/11 09:06:35;;;;;;;32.57;19.00;;;;;;;25.82;42.95;95579.41;6286230;27;108983;-67
2023/08/11 09:09:38;;;;;;;26.40;16.70;;;;;;;25.73;42.96;95571.41;6289199;27;109049;-68
2023/08/11 09:12:42;;;;;;;31.83;17.92;;;;;;;25.72;43.11;95574.41;6296513;27;108824;-67
2023/08/11 09:15:46;;;;;;;25.63;17.17;;;;;;;25.74;42.55;95569.50;6293262;27;111830;-67
2023/08/11 09:18:51;;;;;;;22.77;15.68;;;;;;;25.82;42.34;95569.47;6308574;27;109053;-68
2023/08/11 09:21:54;;;;;;;25.53;15.60;;;;;;;25.68;42.77;95569.63;6280087;27;109948;-67
2023/08/11 09:24:57;;;;;;;20.17;14.00;;;;;;;25.73;42.64;95570.59;6323632;27;109231;-66
2023/08/11 09:28:00;;;;;;;22.67;13.10;;;;;;;25.74;42.49;95566.81;6297501;27;109236;-67
2023/08/11 09:31:03;;;;;;;24.75;13.50;;;;;;;25.71;42.79;95562.06;6295204;27;109992;-65
2023/08/11 09:34:14;;;;;;;174.80;124.57;;;;;;;25.54;42.77;95557.50;6305243;27;110322;-66
2023/08/11 09:37:17;;;;;;;79.05;55.45;;;;;;;25.62;42.18;95557.50;6310034;27;109153;-66
2023/08/11 09:40:22;;;;;;;25.43;21.30;;;;;;;25.57;41.21;95560.34;6311019;27;109290;-67
2023/08/11 09:43:25;;;;;;;24.92;20.45;;;;;;;25.48;40.84;95554.19;6300864;27;109824;-66
2023/08/11 09:46:28;;;;;;;58.80;45.70;;;;;;;25.38;41.64;95555.31;6311215;27;109244;-66
2023/08/11 09:49:36;;;;;;;34.08;27.55;;;;;;;25.43;41.46;95559.72;6331956;27;108990;-67
2023/08/11 09:52:40;;;;;;;14.88;10.90;;;;;;;25.43;40.58;95557.03;6332852;27;108823;-67
2023/08/11 09:55:45;;;;;;;7.22;6.00;;;;;;;25.41;40.90;95555.78;6300577;27;109109;-66
2023/08/11 09:58:52;;;;;;;19.10;12.70;;;;;;;25.55;41.11;95549.16;6325054;27;110067;-66
2023/08/11 10:02:00;;;;;;;13.65;10.25;;;;;;;25.44;41.94;95552.47;6318139;27;109210;-66
2023/08/11 10:05:10;;;;;;;10.60;8.43;;;;;;;25.41;41.34;95551.22;6305182;27;109341;-64
2023/08/11 10:08:19;;;;;;;9.63;8.27;;;;;;;25.42;41.58;95554.66;6306031;27;109434;-71
2023/08/11 10:11:26;;;;;;;8.95;7.10;;;;;;;25.37;40.92;95553.72;6315152;27;109132;-71
2023/08/11 10:14:29;;;;;;;7.50;6.30;;;;;;;25.27;41.40;95542.50;6333734;27;109191;-70
2023/08/11 10:17:33;;;;;;;10.30;7.50;;;;;;;25.16;41.34;95542.00;6329924;27;109248;-69
2023/08/11 10:20:38;;;;;;;5.68;4.25;;;;;;;25.17;40.76;95526.72;6341478;27;109122;-72
2023/08/11 10:23:42;;;;;;;4.75;3.92;;;;;;;25.18;40.59;95536.31;6340785;27;108962;-72
2023/08/11 10:26:45;;;;;;;4.85;3.80;;;;;;;25.19;40.81;95527.19;6340635;27;109163;-70
2023/08/11 10:29:51;;;;;;;6.50;5.00;;;;;;;25.24;41.03;95521.69;6330864;27;109245;-70
2023/08/11 10:33:03;;;;;;;5.30;4.20;;;;;;;25.24;40.84;95521.69;6297373;27;109158;-71
2023/08/11 10:36:12;;;;;;;4.65;4.15;;;;;;;25.15;40.82;95515.53;6340803;27;109273;-72
2023/08/11 10:39:18;;;;;;;5.45;4.00;;;;;;;25.13;40.34;95515.06;6335755;27;109017;-67
2023/08/11 10:42:21;;;;;;;4.70;3.83;;;;;;;25.11;40.26;95511.91;6296981;27;109203;-70
2023/08/11 10:45:25;;;;;;;5.18;4.50;;;;;;;25.13;40.59;95510.47;6314798;27;109145;-71
2023/08/11 10:48:31;;;;;;;6.20;4.40;;;;;;;25.13;40.47;95509.69;6312351;27;109092;-69
2023/08/11 10:51:37;;;;;;;7.13;4.55;;;;;;;25.12;40.81;95506.22;6292748;27;109514;-70
2023/08/11 10:54:50;;;;;;;5.20;4.00;;;;;;;25.12;40.06;95510.81;6304426;27;109056;-70
2023/08/11 10:58:12;;;;;;;8.88;4.68;;;;;;;25.11;41.21;95509.22;6301130;27;109447;-69
2023/08/11 11:01:15;;;;;;;5.30;3.60;;;;;;;25.12;41.36;95505.44;6309224;27;109992;-71
2023/08/11 11:04:20;;;;;;;4.50;3.95;;;;;;;25.00;40.57;95504.16;6289529;27;109036;-71
2023/08/11 11:07:25;;;;;;;4.60;3.85;;;;;;;25.11;40.52;95501.97;6307246;27;109024;-70
2023/08/11 11:10:28;;;;;;;4.20;3.50;;;;;;;25.22;40.36;95497.13;6293072;27;109180;-71
2023/08/11 11:13:51;;;;;;;3.95;3.58;;;;;;;25.32;40.54;95502.94;6289609;27;109201;-69
2023/08/11 11:16:58;;;;;;;4.15;3.58;;;;;;;25.35;40.18;95505.00;6314192;27;110141;-71
2023/08/11 11:20:03;;;;;;;5.90;3.90;;;;;;;25.23;39.91;95504.03;6300682;27;109215;-70
2023/08/11 11:23:07;;;;;;;4.40;3.53;;;;;;;25.19;39.86;95501.19;6294430;27;109220;-71
2023/08/11 11:26:11;;;;;;;3.60;3.30;;;;;;;25.22;39.86;95497.13;6295965;27;108835;-71
2023/08/11 11:29:14;;;;;;;5.20;3.90;;;;;;;25.18;40.38;95499.59;6324162;27;109208;-71
2023/08/11 11:32:18;;;;;;;4.90;4.00;;;;;;;25.11;40.37;95493.16;6313940;27;110020;-72
2023/08/11 11:35:24;;;;;;;4.82;4.30;;;;;;;25.04;40.60;95499.00;6160984;27;109189;-70
2023/08/11 11:38:28;;;;;;;4.90;4.40;;;;;;;25.05;40.97;95504.03;6228026;27;109202;-70
2023/08/11 11:41:32;;;;;;;4.60;4.20;;;;;;;25.17;40.94;95503.38;6243245;27;109330;-70
2023/08/11 11:44:36;;;;;;;5.50;4.20;;;;;;;25.23;41.12;95498.69;6250857;27;109037;-70
2023/08/11 11:47:40;;;;;;;6.10;4.20;;;;;;;25.25;41.17;95493.81;6244356;27;109412;-68
2023/08/11 11:50:43;;;;;;;4.55;3.90;;;;;;;25.19;41.22;95493.16;6260823;27;108840;-70
2023/08/11 11:53:51;;;;;;;4.68;4.18;;;;;;;25.12;41.19;95492.84;6244457;27;109327;-70
2023/08/11 11:56:55;;;;;;;5.22;4.00;;;;;;;25.11;41.47;95493.16;6242852;27;110775;-70
2023/08/11 12:00:16;;;;;;;4.40;3.60;;;;;;;25.09;41.39;95496.16;6234666;27;110005;-69
2023/08/11 12:03:19;;;;;;;4.30;3.90;;;;;;;24.98;41.19;95498.34;6251923;27;109007;-71
2023/08/11 12:06:22;;;;;;;5.28;4.10;;;;;;;24.94;41.45;95491.25;6241649;27;110253;-70
2023/08/11 12:09:28;;;;;;;4.40;4.00;;;;;;;24.99;41.25;95494.56;6240310;27;109409;-70
2023/08/11 12:12:32;;;;;;;4.30;3.90;;;;;;;25.06;41.32;95494.88;6240003;27;108968;-70
2023/08/11 12:15:36;;;;;;;4.00;3.60;;;;;;;25.07;41.30;95493.78;6242864;27;109028;-71
2023/08/11 12:18:40;;;;;;;4.60;4.00;;;;;;;25.00;41.01;95495.34;6246491;27;111764;-70
2023/08/11 12:21:44;;;;;;;4.43;4.03;;;;;;;25.03;41.27;95489.34;6240094;27;109218;-67
2023/08/11 12:24:48;;;;;;;3.75;3.35;;;;;;;25.04;41.01;95497.09;6245020;27;110266;-70
2023/08/11 12:27:53;;;;;;;4.60;3.70;;;;;;;25.04;40.85;95501.66;6250099;27;109240;-68
2023/08/11 12:30:57;;;;;;;4.93;3.30;;;;;;;24.97;40.55;95488.72;6243214;27;109287;-68
2023/08/11 12:34:00;;;;;;;4.07;3.58;;;;;;;24.93;40.78;95489.66;6241481;27;109073;-67
2023/08/11 12:37:03;;;;;;;4.00;3.28;;;;;;;24.93;40.58;95490.47;6251994;27;108991;-69
2023/08/11 12:40:09;;;;;;;4.20;2.70;;;;;;;24.98;40.28;95486.84;6243704;27;109077;-68
2023/08/11 12:43:13;;;;;;;3.70;3.10;;;;;;;24.93;40.11;95484.31;6250252;27;109197;-68
2023/08/11 12:46:16;;;;;;;3.20;2.90;;;;;;;24.95;40.30;95480.22;6235003;27;109056;-68
2023/08/11 12:49:20;;;;;;;3.80;3.50;;;;;;;25.01;40.22;95484.31;6241916;27;109443;-69
2023/08/11 12:52:23;;;;;;;4.70;3.72;;;;;;;25.00;40.01;95479.28;6251502;27;109274;-67
2023/08/11 12:55:29;;;;;;;5.88;3.83;;;;;;;25.00;39.76;95484.63;6230639;27;109199;-67
2023/08/11 12:58:32;;;;;;;5.90;5.20;;;;;;;24.96;39.74;95481.78;6231987;27;109046;-67
2023/08/11 13:01:35;;;;;;;6.15;5.55;;;;;;;24.92;40.00;95472.03;6235870;27;108917;-67
2023/08/11 13:04:38;;;;;;;5.10;4.60;;;;;;;24.90;39.99;95479.59;6256852;27;109259;-67
2023/08/11 13:07:42;;;;;;;5.25;4.75;;;;;;;24.91;39.86;95476.59;6249213;27;109136;-68
2023/08/11 13:10:46;;;;;;;6.88;4.53;;;;;;;24.99;40.21;95483.06;6254259;27;109202;-68
2023/08/11 13:13:49;;;;;;;4.80;3.95;;;;;;;25.13;40.15;95480.25;6238491;27;109149;-69
2023/08/11 13:16:53;;;;;;;4.63;4.20;;;;;;;25.12;40.28;95475.97;6261211;27;109103;-67
2023/08/11 13:19:56;;;;;;;4.05;3.70;;;;;;;25.06;40.14;95483.41;6243527;27;110586;-68
2023/08/11 13:22:59;;;;;;;4.97;4.22;;;;;;;24.99;40.21;95481.16;6261428;27;110641;-68
2023/08/11 13:26:04;;;;;;;4.60;4.20;;;;;;;24.97;40.29;95475.34;6261010;27;110686;-66
2023/08/11 13:29:07;;;;;;;4.00;3.60;;;;;;;25.02;40.49;95477.06;6255883;27;109243;-66
2023/08/11 13:32:11;;;;;;;4.97;3.85;;;;;;;25.05;40.56;95474.56;6229172;27;108948;-67
2023/08/11 13:35:15;;;;;;;3.40;3.10;;;;;;;25.02;40.48;95477.84;6235462;27;108980;-69
2023/08/11 13:38:18;;;;;;;3.40;3.10;;;;;;;25.06;40.46;95483.41;6236001;27;109179;-66
2023/08/11 13:41:22;;;;;;;4.60;3.10;;;;;;;25.05;40.12;95479.13;6227310;27;110910;-66
2023/08/11 13:44:25;;;;;;;3.20;2.90;;;;;;;25.07;40.19;95475.03;6234886;27;111947;-65
2023/08/11 13:47:29;;;;;;;3.00;2.70;;;;;;;25.11;40.17;95482.44;6235626;27;109212;-67
2023/08/11 13:50:32;;;;;;;3.28;2.78;;;;;;;25.12;40.07;95479.44;6249792;27;109150;-65
2023/08/11 13:53:35;;;;;;;2.80;2.60;;;;;;;25.13;39.88;95481.03;6249670;27;112479;-66
2023/08/11 13:56:39;;;;;;;2.72;2.45;;;;;;;25.18;39.85;95480.84;6236457;27;109560;-66
2023/08/11 13:59:42;;;;;;;2.70;2.50;;;;;;;25.20;39.59;95481.31;6242245;27;109087;-66
2023/08/11 14:02:46;;;;;;;3.70;2.60;;;;;;;25.25;39.57;95478.50;6259586;27;109197;-66
2023/08/11 14:05:49;;;;;;;3.30;2.53;;;;;;;25.28;39.47;95475.19;6233055;27;108954;-66
2023/08/11 14:08:52;;;;;;;3.20;2.60;;;;;;;25.26;39.56;95481.97;6234935;27;109223;-66
2023/08/11 14:11:57;;;;;;;2.87;2.50;;;;;;;25.23;39.80;95475.38;6235037;27;109140;-66